sensor_id;sensor_type;location;lat;lon;timestamp;P1;durP1;ratioP1;P2;durP2;ratioP2
43311;SDS011;30041;48.300;16.352;2023-07-30T00:01:48;2.00;;;1.30;;
43311;SDS011;30041;48.300;16.352;2023-07-30T00:04:14;2.25;;;1.60;;
43311;SDS011;30041;48.300;16.352;2023-07-30T00:06:39;2.72;;;1.40;;
43311;SDS011;30041;48.300;16.352;2023-07-30T00:09:05;3.65;;;1.60;;
43311;SDS011;30041;48.300;16.352;2023-07-30T00:11:30;2.80;;;1.48;;
43311;SDS011;30041;48.300;16.352;2023-07-30T00:13:58;3.38;;;1.45;;
43311;SDS011;30041;48.300;16.352;2023-07-30T00:16:27;2.30;;;1.60;;
43311;SDS011;30041;48.300;16.352;2023-07-30T00:18:53;2.35;;;1.70;;
43311;SDS011;30041;48.300;16.352;2023-07-30T00:21:18;2.10;;;1.52;;
43311;SDS011;30041;48.300;16.352;2023-07-30T00:23:44;2.50;;;1.52;;
43311;SDS011;30041;48.300;16.352;2023-07-30T00:26:09;2.00;;;1.40;;
43311;SDS011;30041;48.300;16.352;2023-07-30T00:28:35;1.77;;;1.38;;
43311;SDS011;30041;48.300;16.352;2023-07-30T00:31:00;2.67;;;1.60;;
43311;SDS011;30041;48.300;16.352;2023-07-30T00:33:26;2.15;;;1.30;;
43311;SDS011;30041;48.300;16.352;2023-07-30T00:35:51;2.70;;;1.42;;
43311;SDS011;30041;48.300;16.352;2023-07-30T00:38:17;3.33;;;1.60;;
43311;SDS011;30041;48.300;16.352;2023-07-30T00:40:43;4.38;;;1.48;;
43311;SDS011;30041;48.300;16.352;2023-07-30T00:43:09;2.95;;;1.45;;
43311;SDS011;30041;48.300;16.352;2023-07-30T00:45:35;1.48;;;1.30;;
43311;SDS011;30041;48.300;16.352;2023-07-30T00:48:03;2.20;;;1.55;;
43311;SDS011;30041;48.300;16.352;2023-07-30T00:50:30;2.05;;;1.20;;
43311;SDS011;30041;48.300;16.352;2023-07-30T00:52:56;2.10;;;1.55;;
43311;SDS011;30041;48.300;16.352;2023-07-30T00:55:22;2.15;;;1.42;;
43311;SDS011;30041;48.300;16.352;2023-07-30T00:57:48;2.50;;;1.80;;
43311;SDS011;30041;48.300;16.352;2023-07-30T01:00:14;1.58;;;1.40;;
43311;SDS011;30041;48.300;16.352;2023-07-30T01:02:40;3.05;;;1.60;;
43311;SDS011;30041;48.300;16.352;2023-07-30T01:05:05;2.50;;;1.50;;
43311;SDS011;30041;48.300;16.352;2023-07-30T01:07:31;2.33;;;1.55;;
43311;SDS011;30041;48.300;16.352;2023-07-30T01:09:57;2.33;;;1.50;;
43311;SDS011;30041;48.300;16.352;2023-07-30T01:12:25;1.75;;;1.38;;
43311;SDS011;30041;48.300;16.352;2023-07-30T01:14:52;1.90;;;1.48;;
43311;SDS011;30041;48.300;16.352;2023-07-30T01:17:20;1.77;;;1.33;;
43311;SDS011;30041;48.300;16.352;2023-07-30T01:19:47;2.25;;;1.35;;
43311;SDS011;30041;48.300;16.352;2023-07-30T01:22:13;2.15;;;1.50;;
43311;SDS011;30041;48.300;16.352;2023-07-30T01:24:38;1.83;;;1.20;;
43311;SDS011;30041;48.300;16.352;2023-07-30T01:27:05;1.90;;;1.40;;
43311;SDS011;30041;48.300;16.352;2023-07-30T01:29:45;3.17;;;1.60;;
43311;SDS011;30041;48.300;16.352;2023-07-30T01:32:16;2.45;;;1.50;;
43311;SDS011;30041;48.300;16.352;2023-07-30T01:34:44;2.47;;;1.58;;
43311;SDS011;30041;48.300;16.352;2023-07-30T01:37:12;2.08;;;1.65;;
43311;SDS011;30041;48.300;16.352;2023-07-30T01:39:38;1.95;;;1.35;;
43311;SDS011;30041;48.300;16.352;2023-07-30T01:42:05;2.95;;;1.50;;
43311;SDS011;30041;48.300;16.352;2023-07-30T01:44:31;1.85;;;1.38;;
43311;SDS011;30041;48.300;16.352;2023-07-30T01:46:56;1.73;;;1.40;;
43311;SDS011;30041;48.300;16.352;2023-07-30T01:49:22;2.50;;;1.60;;
43311;SDS011;30041;48.300;16.352;2023-07-30T01:51:48;2.00;;;1.40;;
43311;SDS011;30041;48.300;16.352;2023-07-30T01:54:13;2.67;;;1.50;;
43311;SDS011;30041;48.300;16.352;2023-07-30T01:56:39;2.05;;;1.42;;
43311;SDS011;30041;48.300;16.352;2023-07-30T01:59:04;1.65;;;1.30;;
43311;SDS011;30041;48.300;16.352;2023-07-30T02:01:32;2.42;;;1.58;;
43311;SDS011;30041;48.300;16.352;2023-07-30T02:03:57;2.13;;;1.25;;
43311;SDS011;30041;48.300;16.352;2023-07-30T02:06:23;1.60;;;1.30;;
43311;SDS011;30041;48.300;16.352;2023-07-30T02:08:48;2.22;;;1.50;;
43311;SDS011;30041;48.300;16.352;2023-07-30T02:11:14;2.08;;;1.45;;
43311;SDS011;30041;48.300;16.352;2023-07-30T02:13:40;2.13;;;1.40;;
43311;SDS011;30041;48.300;16.352;2023-07-30T02:16:05;1.70;;;1.40;;
43311;SDS011;30041;48.300;16.352;2023-07-30T02:18:30;1.60;;;1.30;;
43311;SDS011;30041;48.300;16.352;2023-07-30T02:20:56;1.90;;;1.30;;
43311;SDS011;30041;48.300;16.352;2023-07-30T02:23:22;2.10;;;1.50;;
43311;SDS011;30041;48.300;16.352;2023-07-30T02:25:47;2.17;;;1.60;;
43311;SDS011;30041;48.300;16.352;2023-07-30T02:28:13;1.80;;;1.35;;
43311;SDS011;30041;48.300;16.352;2023-07-30T02:30:38;3.15;;;1.23;;
43311;SDS011;30041;48.300;16.352;2023-07-30T02:33:06;3.03;;;1.30;;
43311;SDS011;30041;48.300;16.352;2023-07-30T02:35:32;1.60;;;1.30;;
43311;SDS011;30041;48.300;16.352;2023-07-30T02:37:57;1.92;;;1.33;;
43311;SDS011;30041;48.300;16.352;2023-07-30T02:40:23;3.00;;;1.50;;
43311;SDS011;30041;48.300;16.352;2023-07-30T02:42:52;2.00;;;1.40;;
43311;SDS011;30041;48.300;16.352;2023-07-30T02:45:17;2.25;;;1.50;;
43311;SDS011;30041;48.300;16.352;2023-07-30T02:47:42;2.42;;;1.30;;
43311;SDS011;30041;48.300;16.352;2023-07-30T02:50:08;2.05;;;1.20;;
43311;SDS011;30041;48.300;16.352;2023-07-30T02:52:34;1.48;;;1.10;;
43311;SDS011;30041;48.300;16.352;2023-07-30T02:54:59;2.42;;;1.50;;
43311;SDS011;30041;48.300;16.352;2023-07-30T02:57:25;3.10;;;1.50;;
43311;SDS011;30041;48.300;16.352;2023-07-30T02:59:51;2.03;;;1.55;;
43311;SDS011;30041;48.300;16.352;2023-07-30T03:02:16;1.88;;;1.30;;
43311;SDS011;30041;48.300;16.352;2023-07-30T03:04:42;1.80;;;1.30;;
43311;SDS011;30041;48.300;16.352;2023-07-30T03:07:07;2.08;;;1.42;;
43311;SDS011;30041;48.300;16.352;2023-07-30T03:09:34;3.50;;;1.65;;
43311;SDS011;30041;48.300;16.352;2023-07-30T03:12:00;1.50;;;1.25;;
43311;SDS011;30041;48.300;16.352;2023-07-30T03:14:25;2.30;;;1.30;;
43311;SDS011;30041;48.300;16.352;2023-07-30T03:16:51;1.80;;;1.33;;
43311;SDS011;30041;48.300;16.352;2023-07-30T03:19:16;1.77;;;1.33;;
43311;SDS011;30041;48.300;16.352;2023-07-30T03:21:42;1.77;;;1.23;;
43311;SDS011;30041;48.300;16.352;2023-07-30T03:24:08;2.15;;;1.38;;
43311;SDS011;30041;48.300;16.352;2023-07-30T03:26:33;1.73;;;1.10;;
43311;SDS011;30041;48.300;16.352;2023-07-30T03:28:59;2.30;;;1.55;;
43311;SDS011;30041;48.300;16.352;2023-07-30T03:31:25;2.17;;;1.42;;
43311;SDS011;30041;48.300;16.352;2023-07-30T03:33:50;1.52;;;1.10;;
43311;SDS011;30041;48.300;16.352;2023-07-30T03:36:16;2.30;;;1.48;;
43311;SDS011;30041;48.300;16.352;2023-07-30T03:38:42;1.58;;;1.10;;
43311;SDS011;30041;48.300;16.352;2023-07-30T03:41:08;1.55;;;1.23;;
43311;SDS011;30041;48.300;16.352;2023-07-30T03:43:35;1.40;;;1.10;;
43311;SDS011;30041;48.300;16.352;2023-07-30T03:46:01;2.13;;;1.45;;
43311;SDS011;30041;48.300;16.352;2023-07-30T03:48:27;1.83;;;1.42;;
43311;SDS011;30041;48.300;16.352;2023-07-30T03:50:53;1.73;;;1.30;;
43311;SDS011;30041;48.300;16.352;2023-07-30T03:53:19;1.73;;;1.33;;
43311;SDS011;30041;48.300;16.352;2023-07-30T03:55:45;1.80;;;1.20;;
43311;SDS011;30041;48.300;16.352;2023-07-30T03:58:10;1.70;;;1.30;;
43311;SDS011;30041;48.300;16.352;2023-07-30T04:00:36;1.70;;;1.30;;
43311;SDS011;30041;48.300;16.352;2023-07-30T04:03:02;3.03;;;1.30;;
43311;SDS011;30041;48.300;16.352;2023-07-30T04:05:28;1.95;;;1.35;;
43311;SDS011;30041;48.300;16.352;2023-07-30T04:07:54;2.08;;;1.40;;
43311;SDS011;30041;48.300;16.352;2023-07-30T04:10:20;1.83;;;1.25;;
43311;SDS011;30041;48.300;16.352;2023-07-30T04:12:46;1.85;;;1.30;;
43311;SDS011;30041;48.300;16.352;2023-07-30T04:15:12;2.10;;;1.48;;
43311;SDS011;30041;48.300;16.352;2023-07-30T04:17:37;3.00;;;1.58;;
43311;SDS011;30041;48.300;16.352;2023-07-30T04:20:03;2.55;;;1.38;;
43311;SDS011;30041;48.300;16.352;2023-07-30T04:22:30;1.60;;;1.40;;
43311;SDS011;30041;48.300;16.352;2023-07-30T04:24:56;1.98;;;1.50;;
43311;SDS011;30041;48.300;16.352;2023-07-30T04:27:21;2.67;;;1.40;;
43311;SDS011;30041;48.300;16.352;2023-07-30T04:29:47;1.67;;;1.17;;
43311;SDS011;30041;48.300;16.352;2023-07-30T04:32:12;2.08;;;1.30;;
43311;SDS011;30041;48.300;16.352;2023-07-30T04:34:38;1.80;;;1.40;;
43311;SDS011;30041;48.300;16.352;2023-07-30T04:37:04;2.30;;;1.50;;
43311;SDS011;30041;48.300;16.352;2023-07-30T04:39:31;1.73;;;1.20;;
43311;SDS011;30041;48.300;16.352;2023-07-30T04:41:57;2.75;;;1.40;;
43311;SDS011;30041;48.300;16.352;2023-07-30T04:44:23;1.90;;;1.40;;
43311;SDS011;30041;48.300;16.352;2023-07-30T04:46:48;1.67;;;1.40;;
43311;SDS011;30041;48.300;16.352;2023-07-30T04:49:14;1.85;;;1.33;;
43311;SDS011;30041;48.300;16.352;2023-07-30T04:51:40;3.30;;;1.65;;
43311;SDS011;30041;48.300;16.352;2023-07-30T04:54:05;1.67;;;1.27;;
43311;SDS011;30041;48.300;16.352;2023-07-30T04:56:31;2.05;;;1.40;;
43311;SDS011;30041;48.300;16.352;2023-07-30T04:58:56;1.98;;;1.45;;
43311;SDS011;30041;48.300;16.352;2023-07-30T05:01:23;4.20;;;1.60;;
43311;SDS011;30041;48.300;16.352;2023-07-30T05:03:49;2.13;;;1.50;;
43311;SDS011;30041;48.300;16.352;2023-07-30T05:06:15;2.63;;;1.42;;
43311;SDS011;30041;48.300;16.352;2023-07-30T05:08:40;2.33;;;1.45;;
43311;SDS011;30041;48.300;16.352;2023-07-30T05:11:06;2.03;;;1.52;;
43311;SDS011;30041;48.300;16.352;2023-07-30T05:13:31;1.80;;;1.50;;
43311;SDS011;30041;48.300;16.352;2023-07-30T05:15:57;2.15;;;1.40;;
43311;SDS011;30041;48.300;16.352;2023-07-30T05:18:22;3.50;;;1.40;;
43311;SDS011;30041;48.300;16.352;2023-07-30T05:20:48;2.20;;;1.55;;
43311;SDS011;30041;48.300;16.352;2023-07-30T05:23:14;2.80;;;1.50;;
43311;SDS011;30041;48.300;16.352;2023-07-30T05:25:39;2.35;;;1.35;;
43311;SDS011;30041;48.300;16.352;2023-07-30T05:28:05;1.90;;;1.38;;
43311;SDS011;30041;48.300;16.352;2023-07-30T05:30:31;3.35;;;1.38;;
43311;SDS011;30041;48.300;16.352;2023-07-30T05:32:56;3.03;;;1.50;;
43311;SDS011;30041;48.300;16.352;2023-07-30T05:35:22;2.42;;;1.48;;
43311;SDS011;30041;48.300;16.352;2023-07-30T05:37:47;1.83;;;1.40;;
43311;SDS011;30041;48.300;16.352;2023-07-30T05:40:13;1.80;;;1.30;;
43311;SDS011;30041;48.300;16.352;2023-07-30T05:42:38;2.28;;;1.45;;
43311;SDS011;30041;48.300;16.352;2023-07-30T05:45:04;1.88;;;1.40;;
43311;SDS011;30041;48.300;16.352;2023-07-30T05:47:30;2.30;;;1.60;;
43311;SDS011;30041;48.300;16.352;2023-07-30T05:49:56;4.65;;;1.65;;
43311;SDS011;30041;48.300;16.352;2023-07-30T05:52:21;2.08;;;1.50;;
43311;SDS011;30041;48.300;16.352;2023-07-30T05:54:47;3.30;;;1.80;;
43311;SDS011;30041;48.300;16.352;2023-07-30T05:57:12;3.92;;;1.85;;
43311;SDS011;30041;48.300;16.352;2023-07-30T05:59:38;2.40;;;1.90;;
43311;SDS011;30041;48.300;16.352;2023-07-30T06:02:03;2.58;;;1.80;;
43311;SDS011;30041;48.300;16.352;2023-07-30T06:04:30;6.10;;;2.05;;
43311;SDS011;30041;48.300;16.352;2023-07-30T06:06:55;4.75;;;1.80;;
43311;SDS011;30041;48.300;16.352;2023-07-30T06:09:21;1.92;;;1.40;;
43311;SDS011;30041;48.300;16.352;2023-07-30T06:11:46;3.60;;;1.77;;
43311;SDS011;30041;48.300;16.352;2023-07-30T06:14:12;2.65;;;1.80;;
43311;SDS011;30041;48.300;16.352;2023-07-30T06:16:37;3.03;;;1.90;;
43311;SDS011;30041;48.300;16.352;2023-07-30T06:19:03;2.58;;;2.10;;
43311;SDS011;30041;48.300;16.352;2023-07-30T06:21:29;3.05;;;1.60;;
43311;SDS011;30041;48.300;16.352;2023-07-30T06:23:54;3.55;;;1.67;;
43311;SDS011;30041;48.300;16.352;2023-07-30T06:26:20;4.25;;;1.90;;
43311;SDS011;30041;48.300;16.352;2023-07-30T06:28:45;3.60;;;1.85;;
43311;SDS011;30041;48.300;16.352;2023-07-30T06:31:11;2.53;;;1.83;;
43311;SDS011;30041;48.300;16.352;2023-07-30T06:33:37;3.75;;;2.03;;
43311;SDS011;30041;48.300;16.352;2023-07-30T06:36:03;5.03;;;1.77;;
43311;SDS011;30041;48.300;16.352;2023-07-30T06:38:29;4.13;;;1.92;;
43311;SDS011;30041;48.300;16.352;2023-07-30T06:40:54;2.78;;;1.90;;
43311;SDS011;30041;48.300;16.352;2023-07-30T06:43:20;2.42;;;1.90;;
43311;SDS011;30041;48.300;16.352;2023-07-30T06:45:45;2.80;;;1.98;;
43311;SDS011;30041;48.300;16.352;2023-07-30T06:48:11;2.15;;;1.42;;
43311;SDS011;30041;48.300;16.352;2023-07-30T06:50:36;5.50;;;1.67;;
43311;SDS011;30041;48.300;16.352;2023-07-30T06:53:02;2.25;;;1.63;;
43311;SDS011;30041;48.300;16.352;2023-07-30T06:55:28;2.05;;;1.33;;
43311;SDS011;30041;48.300;16.352;2023-07-30T06:57:53;2.20;;;1.30;;
43311;SDS011;30041;48.300;16.352;2023-07-30T07:00:19;3.78;;;1.63;;
43311;SDS011;30041;48.300;16.352;2023-07-30T07:02:44;2.35;;;1.30;;
43311;SDS011;30041;48.300;16.352;2023-07-30T07:05:10;2.00;;;1.35;;
43311;SDS011;30041;48.300;16.352;2023-07-30T07:07:35;3.00;;;1.50;;
43311;SDS011;30041;48.300;16.352;2023-07-30T07:10:01;4.95;;;1.40;;
43311;SDS011;30041;48.300;16.352;2023-07-30T07:12:26;1.70;;;1.27;;
43311;SDS011;30041;48.300;16.352;2023-07-30T07:14:52;2.53;;;1.40;;
43311;SDS011;30041;48.300;16.352;2023-07-30T07:17:18;4.07;;;1.60;;
43311;SDS011;30041;48.300;16.352;2023-07-30T07:19:43;2.28;;;1.20;;
43311;SDS011;30041;48.300;16.352;2023-07-30T07:22:09;2.72;;;1.30;;
43311;SDS011;30041;48.300;16.352;2023-07-30T07:24:34;1.63;;;1.15;;
43311;SDS011;30041;48.300;16.352;2023-07-30T07:27:00;4.03;;;1.55;;
43311;SDS011;30041;48.300;16.352;2023-07-30T07:29:25;2.20;;;1.30;;
43311;SDS011;30041;48.300;16.352;2023-07-30T07:31:51;1.80;;;1.20;;
43311;SDS011;30041;48.300;16.352;2023-07-30T07:34:16;1.50;;;1.08;;
43311;SDS011;30041;48.300;16.352;2023-07-30T07:36:42;2.03;;;1.17;;
43311;SDS011;30041;48.300;16.352;2023-07-30T07:39:07;4.55;;;1.20;;
43311;SDS011;30041;48.300;16.352;2023-07-30T07:41:33;1.88;;;1.10;;
43311;SDS011;30041;48.300;16.352;2023-07-30T07:43:59;2.88;;;1.20;;
43311;SDS011;30041;48.300;16.352;2023-07-30T07:46:24;1.45;;;1.05;;
43311;SDS011;30041;48.300;16.352;2023-07-30T07:48:50;2.08;;;1.25;;
43311;SDS011;30041;48.300;16.352;2023-07-30T07:51:15;3.63;;;1.30;;
43311;SDS011;30041;48.300;16.352;2023-07-30T07:53:41;3.72;;;1.40;;
43311;SDS011;30041;48.300;16.352;2023-07-30T07:56:06;3.78;;;1.40;;
43311;SDS011;30041;48.300;16.352;2023-07-30T07:58:32;1.98;;;0.98;;
43311;SDS011;30041;48.300;16.352;2023-07-30T08:00:58;2.50;;;1.20;;
43311;SDS011;30041;48.300;16.352;2023-07-30T08:03:24;2.30;;;1.30;;
43311;SDS011;30041;48.300;16.352;2023-07-30T08:05:49;2.58;;;1.48;;
43311;SDS011;30041;48.300;16.352;2023-07-30T08:08:15;2.13;;;1.48;;
43311;SDS011;30041;48.300;16.352;2023-07-30T08:10:41;1.70;;;1.08;;
43311;SDS011;30041;48.300;16.352;2023-07-30T08:13:06;2.80;;;1.33;;
43311;SDS011;30041;48.300;16.352;2023-07-30T08:15:32;5.30;;;1.40;;
43311;SDS011;30041;48.300;16.352;2023-07-30T08:17:58;2.53;;;1.30;;
43311;SDS011;30041;48.300;16.352;2023-07-30T08:20:23;3.90;;;1.23;;
43311;SDS011;30041;48.300;16.352;2023-07-30T08:22:49;2.25;;;1.33;;
43311;SDS011;30041;48.300;16.352;2023-07-30T08:25:14;2.10;;;1.30;;
43311;SDS011;30041;48.300;16.352;2023-07-30T08:27:40;2.20;;;1.30;;
43311;SDS011;30041;48.300;16.352;2023-07-30T08:30:06;3.47;;;1.23;;
43311;SDS011;30041;48.300;16.352;2023-07-30T08:32:32;2.45;;;1.40;;
43311;SDS011;30041;48.300;16.352;2023-07-30T08:34:58;3.40;;;1.42;;
43311;SDS011;30041;48.300;16.352;2023-07-30T08:37:24;3.33;;;1.70;;
43311;SDS011;30041;48.300;16.352;2023-07-30T08:39:49;3.00;;;1.60;;
43311;SDS011;30041;48.300;16.352;2023-07-30T08:42:15;2.33;;;1.42;;
43311;SDS011;30041;48.300;16.352;2023-07-30T08:44:40;2.35;;;1.52;;
43311;SDS011;30041;48.300;16.352;2023-07-30T08:47:06;1.70;;;1.30;;
43311;SDS011;30041;48.300;16.352;2023-07-30T08:49:32;3.58;;;1.50;;
43311;SDS011;30041;48.300;16.352;2023-07-30T08:51:57;3.33;;;1.58;;
43311;SDS011;30041;48.300;16.352;2023-07-30T08:54:23;2.72;;;1.63;;
43311;SDS011;30041;48.300;16.352;2023-07-30T08:56:50;2.30;;;1.65;;
43311;SDS011;30041;48.300;16.352;2023-07-30T08:59:17;3.05;;;1.92;;
43311;SDS011;30041;48.300;16.352;2023-07-30T09:01:44;2.58;;;1.77;;
43311;SDS011;30041;48.300;16.352;2023-07-30T09:04:12;3.90;;;1.73;;
43311;SDS011;30041;48.300;16.352;2023-07-30T09:06:42;2.80;;;1.77;;
43311;SDS011;30041;48.300;16.352;2023-07-30T09:09:08;3.95;;;2.10;;
43311;SDS011;30041;48.300;16.352;2023-07-30T09:11:35;3.33;;;2.17;;
43311;SDS011;30041;48.300;16.352;2023-07-30T09:14:01;2.67;;;2.00;;
43311;SDS011;30041;48.300;16.352;2023-07-30T09:16:27;3.35;;;1.90;;
43311;SDS011;30041;48.300;16.352;2023-07-30T09:18:52;3.28;;;1.92;;
43311;SDS011;30041;48.300;16.352;2023-07-30T09:21:19;2.90;;;1.92;;
43311;SDS011;30041;48.300;16.352;2023-07-30T09:23:46;4.15;;;2.00;;
43311;SDS011;30041;48.300;16.352;2023-07-30T09:26:12;3.20;;;2.00;;
43311;SDS011;30041;48.300;16.352;2023-07-30T09:28:39;3.15;;;1.90;;
43311;SDS011;30041;48.300;16.352;2023-07-30T09:31:05;2.40;;;1.90;;
43311;SDS011;30041;48.300;16.352;2023-07-30T09:33:32;3.15;;;2.10;;
43311;SDS011;30041;48.300;16.352;2023-07-30T09:36:02;2.67;;;1.98;;
43311;SDS011;30041;48.300;16.352;2023-07-30T09:38:28;4.43;;;2.08;;
43311;SDS011;30041;48.300;16.352;2023-07-30T09:40:58;3.13;;;2.10;;
43311;SDS011;30041;48.300;16.352;2023-07-30T09:43:28;4.28;;;2.17;;
43311;SDS011;30041;48.300;16.352;2023-07-30T09:45:54;3.40;;;1.85;;
43311;SDS011;30041;48.300;16.352;2023-07-30T09:48:30;2.77;;;2.20;;
43311;SDS011;30041;48.300;16.352;2023-07-30T09:50:58;3.10;;;2.15;;
43311;SDS011;30041;48.300;16.352;2023-07-30T09:53:24;2.80;;;2.05;;
43311;SDS011;30041;48.300;16.352;2023-07-30T09:55:51;2.65;;;2.00;;
43311;SDS011;30041;48.300;16.352;2023-07-30T09:58:17;2.72;;;2.10;;
43311;SDS011;30041;48.300;16.352;2023-07-30T10:00:43;3.67;;;2.17;;
43311;SDS011;30041;48.300;16.352;2023-07-30T10:03:09;3.75;;;2.28;;
43311;SDS011;30041;48.300;16.352;2023-07-30T10:05:37;2.47;;;1.80;;
43311;SDS011;30041;48.300;16.352;2023-07-30T10:08:21;3.08;;;2.38;;
43311;SDS011;30041;48.300;16.352;2023-07-30T10:10:49;4.95;;;2.40;;
43311;SDS011;30041;48.300;16.352;2023-07-30T10:13:17;2.90;;;2.00;;
43311;SDS011;30041;48.300;16.352;2023-07-30T10:15:44;2.40;;;1.90;;
43311;SDS011;30041;48.300;16.352;2023-07-30T10:18:11;3.00;;;2.20;;
43311;SDS011;30041;48.300;16.352;2023-07-30T10:20:37;3.33;;;2.10;;
43311;SDS011;30041;48.300;16.352;2023-07-30T10:23:04;3.15;;;2.10;;
43311;SDS011;30041;48.300;16.352;2023-07-30T10:25:31;5.40;;;2.40;;
43311;SDS011;30041;48.300;16.352;2023-07-30T10:30:58;3.58;;;2.05;;
43311;SDS011;30041;48.300;16.352;2023-07-30T10:36:30;4.10;;;2.05;;
43311;SDS011;30041;48.300;16.352;2023-07-30T10:38:57;5.97;;;2.22;;
43311;SDS011;30041;48.300;16.352;2023-07-30T10:41:23;2.83;;;1.90;;
43311;SDS011;30041;48.300;16.352;2023-07-30T10:43:49;3.65;;;1.90;;
43311;SDS011;30041;48.300;16.352;2023-07-30T10:46:16;7.75;;;1.90;;
43311;SDS011;30041;48.300;16.352;2023-07-30T10:48:43;6.57;;;1.75;;
43311;SDS011;30041;48.300;16.352;2023-07-30T10:51:12;3.05;;;1.67;;
43311;SDS011;30041;48.300;16.352;2023-07-30T10:53:43;3.90;;;1.48;;
43311;SDS011;30041;48.300;16.352;2023-07-30T10:56:09;5.72;;;1.90;;
43311;SDS011;30041;48.300;16.352;2023-07-30T10:58:38;4.18;;;1.50;;
43311;SDS011;30041;48.300;16.352;2023-07-30T11:01:05;2.90;;;1.40;;
43311;SDS011;30041;48.300;16.352;2023-07-30T11:03:32;3.50;;;1.73;;
43311;SDS011;30041;48.300;16.352;2023-07-30T11:05:58;4.88;;;1.67;;
43311;SDS011;30041;48.300;16.352;2023-07-30T11:08:37;2.97;;;1.70;;
43311;SDS011;30041;48.300;16.352;2023-07-30T11:11:04;3.60;;;1.50;;
43311;SDS011;30041;48.300;16.352;2023-07-30T11:13:35;3.72;;;1.70;;
43311;SDS011;30041;48.300;16.352;2023-07-30T11:16:04;3.17;;;1.40;;
43311;SDS011;30041;48.300;16.352;2023-07-30T11:18:31;3.55;;;1.50;;
43311;SDS011;30041;48.300;16.352;2023-07-30T11:21:03;5.03;;;1.52;;
43311;SDS011;30041;48.300;16.352;2023-07-30T11:23:32;4.20;;;1.50;;
43311;SDS011;30041;48.300;16.352;2023-07-30T11:26:00;2.78;;;1.45;;
43311;SDS011;30041;48.300;16.352;2023-07-30T11:28:27;3.42;;;2.00;;
43311;SDS011;30041;48.300;16.352;2023-07-30T11:30:58;5.90;;;1.58;;
43311;SDS011;30041;48.300;16.352;2023-07-30T11:33:27;3.65;;;1.70;;
43311;SDS011;30041;48.300;16.352;2023-07-30T11:35:56;2.92;;;1.55;;
43311;SDS011;30041;48.300;16.352;2023-07-30T11:38:23;2.80;;;1.40;;
43311;SDS011;30041;48.300;16.352;2023-07-30T11:40:50;9.55;;;2.08;;
43311;SDS011;30041;48.300;16.352;2023-07-30T11:43:16;8.23;;;2.08;;
43311;SDS011;30041;48.300;16.352;2023-07-30T11:45:42;5.85;;;1.73;;
43311;SDS011;30041;48.300;16.352;2023-07-30T11:48:08;4.30;;;1.50;;
43311;SDS011;30041;48.300;16.352;2023-07-30T11:50:45;3.50;;;1.25;;
43311;SDS011;30041;48.300;16.352;2023-07-30T11:53:11;3.30;;;1.50;;
43311;SDS011;30041;48.300;16.352;2023-07-30T11:55:37;3.78;;;1.42;;
43311;SDS011;30041;48.300;16.352;2023-07-30T11:58:04;7.20;;;1.50;;
43311;SDS011;30041;48.300;16.352;2023-07-30T12:00:31;6.53;;;1.70;;
43311;SDS011;30041;48.300;16.352;2023-07-30T12:03:04;4.97;;;1.38;;
43311;SDS011;30041;48.300;16.352;2023-07-30T12:05:32;8.55;;;1.60;;
43311;SDS011;30041;48.300;16.352;2023-07-30T12:07:59;6.38;;;1.45;;
43311;SDS011;30041;48.300;16.352;2023-07-30T12:10:25;5.13;;;1.48;;
43311;SDS011;30041;48.300;16.352;2023-07-30T12:12:51;4.50;;;1.40;;
43311;SDS011;30041;48.300;16.352;2023-07-30T12:15:16;9.20;;;1.35;;
43311;SDS011;30041;48.300;16.352;2023-07-30T12:17:42;8.65;;;1.75;;
43311;SDS011;30041;48.300;16.352;2023-07-30T12:20:07;5.63;;;1.20;;
43311;SDS011;30041;48.300;16.352;2023-07-30T12:22:34;4.20;;;1.30;;
43311;SDS011;30041;48.300;16.352;2023-07-30T12:25:00;7.05;;;1.38;;
43311;SDS011;30041;48.300;16.352;2023-07-30T12:27:27;5.97;;;1.30;;
43311;SDS011;30041;48.300;16.352;2023-07-30T12:29:52;3.95;;;1.10;;
43311;SDS011;30041;48.300;16.352;2023-07-30T12:32:18;5.18;;;1.60;;
43311;SDS011;30041;48.300;16.352;2023-07-30T12:34:43;4.55;;;1.48;;
43311;SDS011;30041;48.300;16.352;2023-07-30T12:37:09;2.70;;;1.33;;
43311;SDS011;30041;48.300;16.352;2023-07-30T12:39:34;3.78;;;1.38;;
43311;SDS011;30041;48.300;16.352;2023-07-30T12:42:00;2.10;;;1.13;;
43311;SDS011;30041;48.300;16.352;2023-07-30T12:44:25;2.78;;;1.20;;
43311;SDS011;30041;48.300;16.352;2023-07-30T12:46:51;4.72;;;1.40;;
43311;SDS011;30041;48.300;16.352;2023-07-30T12:49:16;3.13;;;1.27;;
43311;SDS011;30041;48.300;16.352;2023-07-30T12:51:42;2.78;;;1.23;;
43311;SDS011;30041;48.300;16.352;2023-07-30T12:54:07;3.00;;;1.40;;
43311;SDS011;30041;48.300;16.352;2023-07-30T12:56:33;2.58;;;1.10;;
43311;SDS011;30041;48.300;16.352;2023-07-30T12:58:58;4.10;;;1.40;;
43311;SDS011;30041;48.300;16.352;2023-07-30T13:01:24;3.63;;;1.23;;
43311;SDS011;30041;48.300;16.352;2023-07-30T13:03:49;3.47;;;1.30;;
43311;SDS011;30041;48.300;16.352;2023-07-30T13:06:15;3.28;;;1.25;;
43311;SDS011;30041;48.300;16.352;2023-07-30T13:08:40;3.13;;;1.17;;
43311;SDS011;30041;48.300;16.352;2023-07-30T13:11:06;2.17;;;1.17;;
43311;SDS011;30041;48.300;16.352;2023-07-30T13:13:31;2.30;;;0.90;;
43311;SDS011;30041;48.300;16.352;2023-07-30T13:15:57;3.35;;;1.23;;
43311;SDS011;30041;48.300;16.352;2023-07-30T13:18:23;2.63;;;1.02;;
43311;SDS011;30041;48.300;16.352;2023-07-30T13:20:49;2.95;;;1.00;;
43311;SDS011;30041;48.300;16.352;2023-07-30T13:23:14;6.38;;;1.13;;
43311;SDS011;30041;48.300;16.352;2023-07-30T13:25:40;4.72;;;1.20;;
43311;SDS011;30041;48.300;16.352;2023-07-30T13:28:05;2.38;;;1.13;;
43311;SDS011;30041;48.300;16.352;2023-07-30T13:30:31;1.50;;;1.00;;
43311;SDS011;30041;48.300;16.352;2023-07-30T13:32:56;3.95;;;1.50;;
43311;SDS011;30041;48.300;16.352;2023-07-30T13:35:22;1.83;;;1.08;;
43311;SDS011;30041;48.300;16.352;2023-07-30T13:37:48;1.95;;;1.00;;
43311;SDS011;30041;48.300;16.352;2023-07-30T13:40:13;1.77;;;0.98;;
43311;SDS011;30041;48.300;16.352;2023-07-30T13:42:39;2.45;;;0.82;;
43311;SDS011;30041;48.300;16.352;2023-07-30T13:45:04;1.77;;;1.00;;
43311;SDS011;30041;48.300;16.352;2023-07-30T13:47:30;1.20;;;1.00;;
43311;SDS011;30041;48.300;16.352;2023-07-30T13:49:56;1.42;;;1.00;;
43311;SDS011;30041;48.300;16.352;2023-07-30T13:52:21;3.00;;;1.27;;
43311;SDS011;30041;48.300;16.352;2023-07-30T13:54:47;1.52;;;1.02;;
43311;SDS011;30041;48.300;16.352;2023-07-30T13:57:13;1.52;;;0.70;;
43311;SDS011;30041;48.300;16.352;2023-07-30T13:59:47;3.08;;;1.00;;
43311;SDS011;30041;48.300;16.352;2023-07-30T14:02:12;1.77;;;0.95;;
43311;SDS011;30041;48.300;16.352;2023-07-30T14:04:38;1.40;;;0.90;;
43311;SDS011;30041;48.300;16.352;2023-07-30T14:07:03;1.60;;;1.08;;
43311;SDS011;30041;48.300;16.352;2023-07-30T14:09:29;1.75;;;1.00;;
43311;SDS011;30041;48.300;16.352;2023-07-30T14:11:54;1.88;;;1.40;;
43311;SDS011;30041;48.300;16.352;2023-07-30T14:14:20;1.95;;;1.40;;
43311;SDS011;30041;48.300;16.352;2023-07-30T14:16:46;2.05;;;1.20;;
43311;SDS011;30041;48.300;16.352;2023-07-30T14:19:11;2.63;;;1.27;;
43311;SDS011;30041;48.300;16.352;2023-07-30T14:21:37;2.10;;;1.30;;
43311;SDS011;30041;48.300;16.352;2023-07-30T14:24:02;2.97;;;1.40;;
43311;SDS011;30041;48.300;16.352;2023-07-30T14:26:28;2.38;;;1.45;;
43311;SDS011;30041;48.300;16.352;2023-07-30T14:28:54;4.75;;;1.70;;
43311;SDS011;30041;48.300;16.352;2023-07-30T14:31:19;1.60;;;1.25;;
43311;SDS011;30041;48.300;16.352;2023-07-30T14:33:45;1.83;;;1.27;;